sensor_id;sensor_type;location;lat;lon;timestamp;pressure;altitude;pressure_sealevel;temperature;humidity
26775;BME280;14362;51.902;7.626;2023-03-14T00:00:41;98417.78;;;11.83;100.00
26775;BME280;14362;51.902;7.626;2023-03-14T00:04:42;98404.59;;;11.80;100.00
26775;BME280;14362;51.902;7.626;2023-03-14T00:08:45;98397.44;;;11.83;100.00
26775;BME280;14362;51.902;7.626;2023-03-14T00:12:47;98403.75;;;11.73;100.00
26775;BME280;14362;51.902;7.626;2023-03-14T00:16:48;98401.31;;;11.64;100.00
26775;BME280;14362;51.902;7.626;2023-03-14T00:20:50;98392.09;;;11.60;100.00
26775;BME280;14362;51.902;7.626;2023-03-14T00:24:53;98404.44;;;11.56;100.00
26775;BME280;14362;51.902;7.626;2023-03-14T00:28:54;98385.69;;;11.56;100.00
26775;BME280;14362;51.902;7.626;2023-03-14T00:32:56;98361.31;;;11.50;100.00
26775;BME280;14362;51.902;7.626;2023-03-14T00:36:57;98343.38;;;11.51;100.00
26775;BME280;14362;51.902;7.626;2023-03-14T00:41:02;98317.03;;;11.41;100.00
26775;BME280;14362;51.902;7.626;2023-03-14T00:45:08;98327.31;;;11.34;100.00
26775;BME280;14362;51.902;7.626;2023-03-14T00:49:10;98333.66;;;11.31;100.00
26775;BME280;14362;51.902;7.626;2023-03-14T00:53:11;98360.31;;;11.25;100.00
26775;BME280;14362;51.902;7.626;2023-03-14T00:57:14;98384.19;;;11.22;100.00
26775;BME280;14362;51.902;7.626;2023-03-14T01:01:18;98386.59;;;11.24;100.00
26775;BME280;14362;51.902;7.626;2023-03-14T01:05:19;98366.28;;;11.23;100.00
26775;BME280;14362;51.902;7.626;2023-03-14T01:09:22;98341.13;;;11.17;100.00
26775;BME280;14362;51.902;7.626;2023-03-14T01:13:25;98328.44;;;11.22;100.00
26775;BME280;14362;51.902;7.626;2023-03-14T01:17:30;98316.94;;;11.27;100.00
26775;BME280;14362;51.902;7.626;2023-03-14T01:21:33;98326.13;;;11.31;100.00
26775;BME280;14362;51.902;7.626;2023-03-14T01:25:40;98350.09;;;11.43;100.00
26775;BME280;14362;51.902;7.626;2023-03-14T01:29:43;98332.59;;;11.46;100.00
26775;BME280;14362;51.902;7.626;2023-03-14T01:33:47;98343.06;;;11.59;100.00
26775;BME280;14362;51.902;7.626;2023-03-14T01:37:48;98345.88;;;11.63;100.00
26775;BME280;14362;51.902;7.626;2023-03-14T01:41:50;98345.88;;;11.59;100.00
26775;BME280;14362;51.902;7.626;2023-03-14T01:46:21;98363.44;;;11.63;100.00
26775;BME280;14362;51.902;7.626;2023-03-14T01:50:23;98373.59;;;11.42;100.00
26775;BME280;14362;51.902;7.626;2023-03-14T01:54:28;98358.59;;;11.14;100.00
26775;BME280;14362;51.902;7.626;2023-03-14T01:58:31;98346.56;;;11.03;100.00
26775;BME280;14362;51.902;7.626;2023-03-14T02:02:35;98345.59;;;10.81;100.00
26775;BME280;14362;51.902;7.626;2023-03-14T02:06:50;98348.63;;;10.69;100.00
26775;BME280;14362;51.902;7.626;2023-03-14T02:10:52;98355.25;;;10.58;100.00
26775;BME280;14362;51.902;7.626;2023-03-14T02:14:54;98346.75;;;10.44;100.00
26775;BME280;14362;51.902;7.626;2023-03-14T02:18:56;98346.69;;;10.37;100.00
26775;BME280;14362;51.902;7.626;2023-03-14T02:22:58;98345.34;;;10.24;100.00
26775;BME280;14362;51.902;7.626;2023-03-14T02:27:07;98339.31;;;10.18;100.00
26775;BME280;14362;51.902;7.626;2023-03-14T02:31:09;98340.38;;;10.11;100.00
26775;BME280;14362;51.902;7.626;2023-03-14T02:35:12;98346.72;;;10.08;100.00
26775;BME280;14362;51.902;7.626;2023-03-14T02:39:15;98349.81;;;9.99;100.00
26775;BME280;14362;51.902;7.626;2023-03-14T02:43:21;98352.06;;;9.94;100.00
26775;BME280;14362;51.902;7.626;2023-03-14T02:47:27;98351.59;;;9.88;100.00
26775;BME280;14362;51.902;7.626;2023-03-14T02:51:31;98356.66;;;9.79;100.00
26775;BME280;14362;51.902;7.626;2023-03-14T02:55:33;98371.31;;;9.76;100.00
26775;BME280;14362;51.902;7.626;2023-03-14T02:59:36;98364.88;;;9.72;100.00
26775;BME280;14362;51.902;7.626;2023-03-14T03:03:37;98371.16;;;9.66;100.00
26775;BME280;14362;51.902;7.626;2023-03-14T03:07:39;98369.16;;;9.66;100.00
26775;BME280;14362;51.902;7.626;2023-03-14T03:11:40;98361.22;;;9.65;100.00
26775;BME280;14362;51.902;7.626;2023-03-14T03:15:43;98353.19;;;9.60;100.00
26775;BME280;14362;51.902;7.626;2023-03-14T03:19:44;98355.97;;;9.60;100.00
26775;BME280;14362;51.902;7.626;2023-03-14T03:23:46;98347.63;;;9.60;100.00
26775;BME280;14362;51.902;7.626;2023-03-14T03:27:47;98349.53;;;9.56;100.00
26775;BME280;14362;51.902;7.626;2023-03-14T03:31:50;98347.56;;;9.56;100.00
26775;BME280;14362;51.902;7.626;2023-03-14T03:35:52;98342.81;;;9.57;100.00
26775;BME280;14362;51.902;7.626;2023-03-14T03:39:54;98355.69;;;9.68;100.00
26775;BME280;14362;51.902;7.626;2023-03-14T03:43:56;98350.22;;;9.75;100.00
26775;BME280;14362;51.902;7.626;2023-03-14T03:47:58;98343.97;;;9.82;100.00
26775;BME280;14362;51.902;7.626;2023-03-14T03:52:00;98338.50;;;9.89;100.00
26775;BME280;14362;51.902;7.626;2023-03-14T03:56:02;98333.84;;;9.96;100.00
26775;BME280;14362;51.902;7.626;2023-03-14T04:00:04;98338.53;;;9.92;100.00
26775;BME280;14362;51.902;7.626;2023-03-14T04:04:08;98333.00;;;9.96;100.00
26775;BME280;14362;51.902;7.626;2023-03-14T04:08:10;98326.66;;;9.95;100.00
26775;BME280;14362;51.902;7.626;2023-03-14T04:12:11;98326.28;;;9.97;100.00
26775;BME280;14362;51.902;7.626;2023-03-14T04:16:15;98319.09;;;9.96;100.00
26775;BME280;14362;51.902;7.626;2023-03-14T04:20:19;98327.88;;;9.98;100.00
26775;BME280;14362;51.902;7.626;2023-03-14T04:24:20;98321.13;;;9.99;100.00
26775;BME280;14362;51.902;7.626;2023-03-14T04:28:21;98313.63;;;9.99;100.00
26775;BME280;14362;51.902;7.626;2023-03-14T04:32:23;98312.78;;;9.99;100.00
26775;BME280;14362;51.902;7.626;2023-03-14T04:36:26;98326.69;;;9.99;100.00
26775;BME280;14362;51.902;7.626;2023-03-14T04:40:27;98309.72;;;10.04;100.00
26775;BME280;14362;51.902;7.626;2023-03-14T04:44:29;98311.34;;;10.08;100.00
26775;BME280;14362;51.902;7.626;2023-03-14T04:48:30;98301.81;;;10.09;100.00
26775;BME280;14362;51.902;7.626;2023-03-14T04:52:33;98301.78;;;10.06;100.00
26775;BME280;14362;51.902;7.626;2023-03-14T04:56:34;98292.69;;;10.09;100.00
26775;BME280;14362;51.902;7.626;2023-03-14T05:00:37;98276.00;;;10.12;100.00
26775;BME280;14362;51.902;7.626;2023-03-14T05:04:38;98270.47;;;10.16;100.00
26775;BME280;14362;51.902;7.626;2023-03-14T05:08:41;98269.28;;;10.13;100.00
26775;BME280;14362;51.902;7.626;2023-03-14T05:12:42;98264.06;;;10.12;100.00
26775;BME280;14362;51.902;7.626;2023-03-14T05:16:44;98260.03;;;10.06;100.00
26775;BME280;14362;51.902;7.626;2023-03-14T05:20:45;98253.63;;;10.02;100.00
26775;BME280;14362;51.902;7.626;2023-03-14T05:24:48;98246.84;;;9.99;100.00
26775;BME280;14362;51.902;7.626;2023-03-14T05:28:49;98251.97;;;9.97;100.00
26775;BME280;14362;51.902;7.626;2023-03-14T05:32:51;98256.66;;;9.90;100.00
26775;BME280;14362;51.902;7.626;2023-03-14T05:36:52;98264.16;;;9.86;100.00
26775;BME280;14362;51.902;7.626;2023-03-14T05:40:56;98260.50;;;9.82;100.00
26775;BME280;14362;51.902;7.626;2023-03-14T05:44:57;98251.75;;;9.80;100.00
26775;BME280;14362;51.902;7.626;2023-03-14T05:48:59;98257.97;;;9.70;100.00
26775;BME280;14362;51.902;7.626;2023-03-14T05:53:01;98257.88;;;9.63;100.00
26775;BME280;14362;51.902;7.626;2023-03-14T05:57:04;98264.16;;;9.56;100.00
26775;BME280;14362;51.902;7.626;2023-03-14T06:01:06;98265.22;;;9.48;100.00
26775;BME280;14362;51.902;7.626;2023-03-14T06:05:08;98273.56;;;9.48;100.00
26775;BME280;14362;51.902;7.626;2023-03-14T06:09:10;98275.09;;;9.42;100.00
26775;BME280;14362;51.902;7.626;2023-03-14T06:13:12;98278.22;;;9.41;100.00
26775;BME280;14362;51.902;7.626;2023-03-14T06:17:15;98267.53;;;9.43;100.00
26775;BME280;14362;51.902;7.626;2023-03-14T06:21:16;98277.34;;;9.33;100.00
26775;BME280;14362;51.902;7.626;2023-03-14T06:25:18;98278.97;;;9.38;100.00
26775;BME280;14362;51.902;7.626;2023-03-14T06:29:21;98293.88;;;9.26;100.00
26775;BME280;14362;51.902;7.626;2023-03-14T06:33:23;98291.88;;;9.23;100.00
26775;BME280;14362;51.902;7.626;2023-03-14T06:37:24;98293.00;;;9.19;100.00
26775;BME280;14362;51.902;7.626;2023-03-14T06:41:25;98286.25;;;9.20;100.00
26775;BME280;14362;51.902;7.626;2023-03-14T06:45:28;98289.78;;;9.17;100.00
26775;BME280;14362;51.902;7.626;2023-03-14T06:49:30;98277.13;;;9.19;100.00
26775;BME280;14362;51.902;7.626;2023-03-14T06:53:31;98289.91;;;9.24;100.00
26775;BME280;14362;51.902;7.626;2023-03-14T06:57:32;98292.38;;;9.29;100.00
26775;BME280;14362;51.902;7.626;2023-03-14T07:01:35;98293.84;;;9.23;100.00
26775;BME280;14362;51.902;7.626;2023-03-14T07:05:37;98291.81;;;9.20;100.00
26775;BME280;14362;51.902;7.626;2023-03-14T07:09:40;98298.28;;;9.27;100.00
26775;BME280;14362;51.902;7.626;2023-03-14T07:13:42;98293.16;;;9.29;100.00
26775;BME280;14362;51.902;7.626;2023-03-14T07:17:44;98289.66;;;9.36;100.00
26775;BME280;14362;51.902;7.626;2023-03-14T07:21:48;98283.63;;;9.30;100.00
26775;BME280;14362;51.902;7.626;2023-03-14T07:25:49;98293.56;;;9.31;100.00
26775;BME280;14362;51.902;7.626;2023-03-14T07:29:51;98305.50;;;9.32;100.00
26775;BME280;14362;51.902;7.626;2023-03-14T07:33:54;98303.56;;;9.36;100.00
26775;BME280;14362;51.902;7.626;2023-03-14T07:37:56;98306.78;;;9.38;100.00
26775;BME280;14362;51.902;7.626;2023-03-14T07:41:57;98303.63;;;9.39;100.00
26775;BME280;14362;51.902;7.626;2023-03-14T07:45:59;98306.06;;;9.44;100.00
26775;BME280;14362;51.902;7.626;2023-03-14T07:50:02;98301.31;;;9.45;100.00
26775;BME280;14362;51.902;7.626;2023-03-14T07:54:03;98304.25;;;9.55;100.00
26775;BME280;14362;51.902;7.626;2023-03-14T07:58:05;98313.47;;;9.59;100.00
26775;BME280;14362;51.902;7.626;2023-03-14T08:02:09;98310.84;;;9.70;100.00
26775;BME280;14362;51.902;7.626;2023-03-14T08:06:13;98318.22;;;9.88;100.00
26775;BME280;14362;51.902;7.626;2023-03-14T08:10:15;98310.88;;;10.03;100.00
26775;BME280;14362;51.902;7.626;2023-03-14T08:14:22;98310.75;;;9.96;100.00
26775;BME280;14362;51.902;7.626;2023-03-14T08:18:24;98302.41;;;9.96;100.00
26775;BME280;14362;51.902;7.626;2023-03-14T08:22:26;98311.56;;;9.96;100.00
26775;BME280;14362;51.902;7.626;2023-03-14T08:26:28;98313.66;;;10.03;100.00
26775;BME280;14362;51.902;7.626;2023-03-14T08:30:29;98310.59;;;10.11;100.00
26775;BME280;14362;51.902;7.626;2023-03-14T08:34:32;98319.78;;;10.15;100.00
26775;BME280;14362;51.902;7.626;2023-03-14T08:38:35;98316.63;;;10.17;100.00
26775;BME280;14362;51.902;7.626;2023-03-14T08:42:37;98317.50;;;10.24;100.00
26775;BME280;14362;51.902;7.626;2023-03-14T08:46:38;98322.31;;;10.27;100.00
26775;BME280;14362;51.902;7.626;2023-03-14T08:50:40;98314.38;;;10.29;100.00
26775;BME280;14362;51.902;7.626;2023-03-14T08:54:43;98322.72;;;10.29;100.00
26775;BME280;14362;51.902;7.626;2023-03-14T08:58:44;98322.81;;;10.36;100.00
26775;BME280;14362;51.902;7.626;2023-03-14T09:02:46;98326.38;;;10.33;100.00
26775;BME280;14362;51.902;7.626;2023-03-14T09:06:47;98336.34;;;10.37;100.00
26775;BME280;14362;51.902;7.626;2023-03-14T09:10:50;98336.56;;;10.55;100.00
26775;BME280;14362;51.902;7.626;2023-03-14T09:14:51;98340.28;;;10.69;100.00
26775;BME280;14362;51.902;7.626;2023-03-14T09:18:52;98347.94;;;10.79;100.00
26775;BME280;14362;51.902;7.626;2023-03-14T09:22:54;98342.44;;;10.86;100.00
26775;BME280;14362;51.902;7.626;2023-03-14T09:26:57;98349.25;;;10.89;100.00
26775;BME280;14362;51.902;7.626;2023-03-14T09:31:05;98351.19;;;10.85;100.00
26775;BME280;14362;51.902;7.626;2023-03-14T09:35:08;98360.28;;;10.78;100.00
26775;BME280;14362;51.902;7.626;2023-03-14T09:39:10;98363.13;;;10.85;100.00
26775;BME280;14362;51.902;7.626;2023-03-14T09:43:14;98377.78;;;10.79;100.00
26775;BME280;14362;51.902;7.626;2023-03-14T09:47:16;98404.72;;;10.68;100.00
26775;BME280;14362;51.902;7.626;2023-03-14T09:51:20;98460.94;;;10.44;100.00
26775;BME280;14362;51.902;7.626;2023-03-14T09:55:23;98465.50;;;9.78;100.00
26775;BME280;14362;51.902;7.626;2023-03-14T09:59:28;98482.34;;;9.40;100.00
26775;BME280;14362;51.902;7.626;2023-03-14T10:03:32;98496.72;;;9.01;100.00
26775;BME280;14362;51.902;7.626;2023-03-14T10:07:34;98512.56;;;8.81;100.00
26775;BME280;14362;51.902;7.626;2023-03-14T10:11:36;98528.16;;;8.86;100.00
26775;BME280;14362;51.902;7.626;2023-03-14T10:15:39;98543.56;;;8.83;100.00
26775;BME280;14362;51.902;7.626;2023-03-14T10:19:51;98565.94;;;8.71;100.00
26775;BME280;14362;51.902;7.626;2023-03-14T10:23:53;98583.28;;;8.49;100.00
26775;BME280;14362;51.902;7.626;2023-03-14T10:27:54;98612.84;;;8.42;100.00
26775;BME280;14362;51.902;7.626;2023-03-14T10:32:00;98629.00;;;8.21;100.00
26775;BME280;14362;51.902;7.626;2023-03-14T10:36:17;98653.31;;;7.97;100.00
26775;BME280;14362;51.902;7.626;2023-03-14T10:40:24;98715.66;;;6.93;100.00
26775;BME280;14362;51.902;7.626;2023-03-14T10:44:28;98725.97;;;6.69;100.00
26775;BME280;14362;51.902;7.626;2023-03-14T10:48:37;98744.88;;;6.67;100.00
26775;BME280;14362;51.902;7.626;2023-03-14T10:52:47;98757.00;;;6.62;100.00
26775;BME280;14362;51.902;7.626;2023-03-14T10:56:56;98790.53;;;6.61;100.00
26775;BME280;14362;51.902;7.626;2023-03-14T11:01:05;98799.78;;;6.53;100.00
26775;BME280;14362;51.902;7.626;2023-03-14T11:05:23;98829.38;;;6.40;100.00
26775;BME280;14362;51.902;7.626;2023-03-14T11:09:33;98851.06;;;6.38;100.00
26775;BME280;14362;51.902;7.626;2023-03-14T11:13:39;98878.59;;;6.03;100.00
26775;BME280;14362;51.902;7.626;2023-03-14T11:17:50;98902.06;;;6.17;100.00
26775;BME280;14362;51.902;7.626;2023-03-14T11:21:58;98916.75;;;6.09;100.00
26775;BME280;14362;51.902;7.626;2023-03-14T11:26:09;98928.59;;;6.30;100.00
26775;BME280;14362;51.902;7.626;2023-03-14T11:30:20;98945.59;;;6.40;100.00
26775;BME280;14362;51.902;7.626;2023-03-14T11:34:28;98965.44;;;6.42;100.00
26775;BME280;14362;51.902;7.626;2023-03-14T11:38:35;98991.84;;;6.19;100.00
26775;BME280;14362;51.902;7.626;2023-03-14T11:42:39;99006.97;;;6.22;100.00
26775;BME280;14362;51.902;7.626;2023-03-14T11:46:48;99028.88;;;6.07;100.00
26775;BME280;14362;51.902;7.626;2023-03-14T11:50:55;99038.38;;;6.17;100.00
26775;BME280;14362;51.902;7.626;2023-03-14T11:55:04;99049.59;;;6.21;100.00
26775;BME280;14362;51.902;7.626;2023-03-14T11:59:15;99060.03;;;6.56;100.00
26775;BME280;14362;51.902;7.626;2023-03-14T12:03:24;99061.59;;;6.66;100.00
26775;BME280;14362;51.902;7.626;2023-03-14T12:07:31;99074.09;;;6.72;100.00
26775;BME280;14362;51.902;7.626;2023-03-14T12:11:44;99090.41;;;6.85;100.00
26775;BME280;14362;51.902;7.626;2023-03-14T12:15:50;99086.06;;;7.28;100.00
26775;BME280;14362;51.902;7.626;2023-03-14T12:20:04;99088.63;;;7.33;100.00
26775;BME280;14362;51.902;7.626;2023-03-14T12:24:18;99108.94;;;7.37;100.00
26775;BME280;14362;51.902;7.626;2023-03-14T12:28:22;99113.69;;;7.49;100.00
26775;BME280;14362;51.902;7.626;2023-03-14T12:32:31;99150.03;;;7.03;100.00
26775;BME280;14362;51.902;7.626;2023-03-14T12:36:54;99153.38;;;6.97;100.00
26775;BME280;14362;51.902;7.626;2023-03-14T12:41:01;99171.44;;;6.94;100.00
26775;BME280;14362;51.902;7.626;2023-03-14T12:45:22;99174.22;;;6.74;100.00
26775;BME280;14362;51.902;7.626;2023-03-14T12:49:29;99193.72;;;6.77;100.00
26775;BME280;14362;51.902;7.626;2023-03-14T12:53:59;99208.06;;;6.79;100.00
26775;BME280;14362;51.902;7.626;2023-03-14T12:58:08;99219.13;;;7.00;100.00
26775;BME280;14362;51.902;7.626;2023-03-14T13:02:27;99235.56;;;7.05;100.00
26775;BME280;14362;51.902;7.626;2023-03-14T13:06:51;99252.97;;;6.85;100.00
26775;BME280;14362;51.902;7.626;2023-03-14T13:10:54;99266.25;;;6.71;100.00
26775;BME280;14362;51.902;7.626;2023-03-14T13:14:57;99274.75;;;6.95;100.00
26775;BME280;14362;51.902;7.626;2023-03-14T13:19:03;99286.97;;;7.14;100.00
26775;BME280;14362;51.902;7.626;2023-03-14T13:23:05;99296.19;;;7.26;100.00
26775;BME280;14362;51.902;7.626;2023-03-14T13:27:16;99292.47;;;7.22;100.00
26775;BME280;14362;51.902;7.626;2023-03-14T13:31:22;99302.13;;;7.37;100.00
26775;BME280;14362;51.902;7.626;2023-03-14T13:35:27;99315.50;;;7.55;100.00
26775;BME280;14362;51.902;7.626;2023-03-14T13:39:29;99327.44;;;7.56;100.00
26775;BME280;14362;51.902;7.626;2023-03-14T13:43:33;99339.38;;;7.48;100.00
26775;BME280;14362;51.902;7.626;2023-03-14T13:47:38;99354.72;;;7.25;100.00
26775;BME280;14362;51.902;7.626;2023-03-14T13:51:42;99359.69;;;7.40;100.00
26775;BME280;14362;51.902;7.626;2023-03-14T13:55:44;99368.63;;;7.16;100.00
26775;BME280;14362;51.902;7.626;2023-03-14T13:59:58;99382.03;;;7.35;100.00
26775;BME280;14362;51.902;7.626;2023-03-14T14:04:05;99394.84;;;7.68;100.00
26775;BME280;14362;51.902;7.626;2023-03-14T14:08:11;99404.56;;;7.74;100.00
26775;BME280;14362;51.902;7.626;2023-03-14T14:12:14;99418.44;;;7.74;100.00
26775;BME280;14362;51.902;7.626;2023-03-14T14:16:20;99438.34;;;7.76;100.00
26775;BME280;14362;51.902;7.626;2023-03-14T14:20:29;99447.06;;;7.37;90.42
26775;BME280;14362;51.902;7.626;2023-03-14T14:24:36;99461.44;;;7.31;86.02
26775;BME280;14362;51.902;7.626;2023-03-14T14:28:38;99474.56;;;7.51;84.62
26775;BME280;14362;51.902;7.626;2023-03-14T14:32:40;99481.13;;;7.67;83.15
26775;BME280;14362;51.902;7.626;2023-03-14T14:36:43;99482.16;;;8.32;82.29
26775;BME280;14362;51.902;7.626;2023-03-14T14:40:53;99479.09;;;8.66;82.02
26775;BME280;14362;51.902;7.626;2023-03-14T14:44:56;99510.88;;;8.36;68.93
26775;BME280;14362;51.902;7.626;2023-03-14T14:49:03;99511.34;;;8.17;64.49
26775;BME280;14362;51.902;7.626;2023-03-14T14:53:21;99526.38;;;8.37;66.04
26775;BME280;14362;51.902;7.626;2023-03-14T14:57:27;99534.09;;;8.52;66.20
26775;BME280;14362;51.902;7.626;2023-03-14T15:01:32;99545.06;;;8.48;64.61
26775;BME280;14362;51.902;7.626;2023-03-14T15:05:34;99558.97;;;8.28;64.06
26775;BME280;14362;51.902;7.626;2023-03-14T15:09:37;99569.69;;;8.50;63.55
26775;BME280;14362;51.902;7.626;2023-03-14T15:13:39;99575.53;;;8.57;64.12
26775;BME280;14362;51.902;7.626;2023-03-14T15:17:41;99589.56;;;8.60;58.48
26775;BME280;14362;51.902;7.626;2023-03-14T15:21:42;99601.81;;;8.59;58.12
26775;BME280;14362;51.902;7.626;2023-03-14T15:25:44;99611.81;;;8.31;59.45
26775;BME280;14362;51.902;7.626;2023-03-14T15:29:48;99606.06;;;8.07;58.44
26775;BME280;14362;51.902;7.626;2023-03-14T15:33:50;99624.56;;;7.95;57.64
26775;BME280;14362;51.902;7.626;2023-03-14T15:37:52;99617.69;;;8.01;62.51
26775;BME280;14362;51.902;7.626;2023-03-14T15:41:54;99626.56;;;8.15;62.44
26775;BME280;14362;51.902;7.626;2023-03-14T15:45:57;99639.63;;;8.23;61.79
26775;BME280;14362;51.902;7.626;2023-03-14T15:49:58;99641.53;;;8.31;61.85
26775;BME280;14362;51.902;7.626;2023-03-14T15:54:00;99656.53;;;8.38;60.17
26775;BME280;14362;51.902;7.626;2023-03-14T15:58:02;99660.72;;;8.15;59.88
26775;BME280;14362;51.902;7.626;2023-03-14T16:02:05;99683.94;;;8.03;64.00
26775;BME280;14362;51.902;7.626;2023-03-14T16:06:06;99688.47;;;7.70;63.74
26775;BME280;14362;51.902;7.626;2023-03-14T16:10:10;99697.16;;;7.51;66.57
26775;BME280;14362;51.902;7.626;2023-03-14T16:14:12;99710.06;;;7.47;71.38
26775;BME280;14362;51.902;7.626;2023-03-14T16:18:15;99723.28;;;7.33;63.37
26775;BME280;14362;51.902;7.626;2023-03-14T16:22:17;99749.19;;;7.04;59.65
26775;BME280;14362;51.902;7.626;2023-03-14T16:26:19;99745.78;;;7.07;60.30
26775;BME280;14362;51.902;7.626;2023-03-14T16:30:20;99780.50;;;7.12;59.49
26775;BME280;14362;51.902;7.626;2023-03-14T16:34:23;99776.88;;;7.04;58.48
26775;BME280;14362;51.902;7.626;2023-03-14T16:38:25;99791.06;;;6.85;57.21
26775;BME280;14362;51.902;7.626;2023-03-14T16:42:26;99798.03;;;6.83;58.59
26775;BME280;14362;51.902;7.626;2023-03-14T16:46:28;99808.63;;;6.81;59.54
26775;BME280;14362;51.902;7.626;2023-03-14T16:50:31;99818.84;;;6.63;58.53
26775;BME280;14362;51.902;7.626;2023-03-14T16:54:33;99839.03;;;6.64;57.81
26775;BME280;14362;51.902;7.626;2023-03-14T16:58:34;99847.63;;;6.54;59.05
26775;BME280;14362;51.902;7.626;2023-03-14T17:02:36;99866.84;;;6.50;58.08
26775;BME280;14362;51.902;7.626;2023-03-14T17:06:39;99874.81;;;6.52;61.62
26775;BME280;14362;51.902;7.626;2023-03-14T17:10:40;99887.22;;;6.32;61.37
26775;BME280;14362;51.902;7.626;2023-03-14T17:14:42;99901.88;;;6.33;63.96
26775;BME280;14362;51.902;7.626;2023-03-14T17:18:43;99912.06;;;6.24;64.98
26775;BME280;14362;51.902;7.626;2023-03-14T17:22:46;99918.13;;;6.26;64.56
26775;BME280;14362;51.902;7.626;2023-03-14T17:26:47;99937.75;;;6.16;68.36
26775;BME280;14362;51.902;7.626;2023-03-14T17:30:49;99946.63;;;6.05;73.78
26775;BME280;14362;51.902;7.626;2023-03-14T17:34:51;99956.78;;;5.96;73.04
26775;BME280;14362;51.902;7.626;2023-03-14T17:38:55;99973.81;;;5.89;78.02
26775;BME280;14362;51.902;7.626;2023-03-14T17:42:57;99979.16;;;5.86;78.65
26775;BME280;14362;51.902;7.626;2023-03-14T17:46:58;99982.84;;;5.81;81.33
26775;BME280;14362;51.902;7.626;2023-03-14T17:51:00;99989.25;;;5.77;83.09
26775;BME280;14362;51.902;7.626;2023-03-14T17:55:03;100016.03;;;5.68;80.10
26775;BME280;14362;51.902;7.626;2023-03-14T17:59:05;100008.44;;;5.60;79.06
26775;BME280;14362;51.902;7.626;2023-03-14T18:03:07;100026.91;;;5.64;86.61
26775;BME280;14362;51.902;7.626;2023-03-14T18:07:08;100029.00;;;5.67;92.49
26775;BME280;14362;51.902;7.626;2023-03-14T18:11:11;100043.88;;;5.58;87.65
26775;BME280;14362;51.902;7.626;2023-03-14T18:15:13;100045.31;;;5.55;89.37
26775;BME280;14362;51.902;7.626;2023-03-14T18:19:14;100049.81;;;5.51;90.54
26775;BME280;14362;51.902;7.626;2023-03-14T18:23:16;100058.44;;;5.50;92.11
26775;BME280;14362;51.902;7.626;2023-03-14T18:27:19;100073.78;;;5.42;96.28
26775;BME280;14362;51.902;7.626;2023-03-14T18:31:20;100083.28;;;5.36;96.26
26775;BME280;14362;51.902;7.626;2023-03-14T18:35:24;100090.25;;;5.34;97.63
26775;BME280;14362;51.902;7.626;2023-03-14T18:39:25;100092.78;;;5.30;96.94
26775;BME280;14362;51.902;7.626;2023-03-14T18:43:28;100110.19;;;5.31;100.00
26775;BME280;14362;51.902;7.626;2023-03-14T18:47:30;100101.81;;;5.22;98.29
26775;BME280;14362;51.902;7.626;2023-03-14T18:51:34;100113.88;;;5.26;100.00
26775;BME280;14362;51.902;7.626;2023-03-14T18:55:36;100120.00;;;5.23;96.51
26775;BME280;14362;51.902;7.626;2023-03-14T18:59:39;100122.88;;;5.18;94.15
26775;BME280;14362;51.902;7.626;2023-03-14T19:03:40;100133.59;;;5.20;97.67
26775;BME280;14362;51.902;7.626;2023-03-14T19:07:42;100145.44;;;5.07;94.22
26775;BME280;14362;51.902;7.626;2023-03-14T19:11:43;100141.63;;;5.03;97.53
26775;BME280;14362;51.902;7.626;2023-03-14T19:15:46;100156.16;;;4.95;96.06
26775;BME280;14362;51.902;7.626;2023-03-14T19:19:47;100154.00;;;4.92;97.03
26775;BME280;14362;51.902;7.626;2023-03-14T19:23:51;100171.34;;;4.93;98.04
26775;BME280;14362;51.902;7.626;2023-03-14T19:27:52;100179.56;;;4.98;100.00
26775;BME280;14362;51.902;7.626;2023-03-14T19:31:55;100187.13;;;4.92;100.00
26775;BME280;14362;51.902;7.626;2023-03-14T19:35:56;100195.28;;;4.84;100.00
26775;BME280;14362;51.902;7.626;2023-03-14T19:39:58;100197.28;;;4.78;100.00
26775;BME280;14362;51.902;7.626;2023-03-14T19:43:59;100203.09;;;4.77;100.00
26775;BME280;14362;51.902;7.626;2023-03-14T19:48:04;100207.28;;;4.74;100.00
26775;BME280;14362;51.902;7.626;2023-03-14T19:52:06;100208.72;;;4.72;100.00
26775;BME280;14362;51.902;7.626;2023-03-14T19:56:07;100218.19;;;4.66;100.00
26775;BME280;14362;51.902;7.626;2023-03-14T20:00:10;100222.44;;;4.58;100.00
26775;BME280;14362;51.902;7.626;2023-03-14T20:04:17;100229.06;;;4.57;100.00
26775;BME280;14362;51.902;7.626;2023-03-14T20:08:19;100226.97;;;4.49;100.00
26775;BME280;14362;51.902;7.626;2023-03-14T20:12:20;100236.06;;;4.50;100.00
26775;BME280;14362;51.902;7.626;2023-03-14T20:16:22;100245.47;;;4.49;100.00
26775;BME280;14362;51.902;7.626;2023-03-14T20:20:24;100248.81;;;4.46;100.00
26775;BME280;14362;51.902;7.626;2023-03-14T20:24:26;100261.34;;;4.38;100.00
26775;BME280;14362;51.902;7.626;2023-03-14T20:28:28;100270.72;;;4.37;100.00
26775;BME280;14362;51.902;7.626;2023-03-14T20:32:30;100269.19;;;4.26;100.00
26775;BME280;14362;51.902;7.626;2023-03-14T20:36:33;100283.50;;;4.28;100.00
26775;BME280;14362;51.902;7.626;2023-03-14T20:40:34;100277.25;;;4.23;100.00
26775;BME280;14362;51.902;7.626;2023-03-14T20:44:36;100286.41;;;4.18;100.00
26775;BME280;14362;51.902;7.626;2023-03-14T20:48:37;100287.56;;;4.12;100.00
26775;BME280;14362;51.902;7.626;2023-03-14T20:52:40;100291.44;;;4.11;100.00
26775;BME280;14362;51.902;7.626;2023-03-14T20:56:42;100308.38;;;4.00;100.00
26775;BME280;14362;51.902;7.626;2023-03-14T21:00:47;100302.94;;;3.95;100.00
26775;BME280;14362;51.902;7.626;2023-03-14T21:04:49;100305.50;;;3.87;100.00
26775;BME280;14362;51.902;7.626;2023-03-14T21:08:53;100300.50;;;3.89;100.00
26775;BME280;14362;51.902;7.626;2023-03-14T21:12:54;100315.69;;;3.86;100.00
26775;BME280;14362;51.902;7.626;2023-03-14T21:16:56;100303.03;;;3.85;100.00
26775;BME280;14362;51.902;7.626;2023-03-14T21:20:59;100309.66;;;3.84;100.00
26775;BME280;14362;51.902;7.626;2023-03-14T21:25:02;100307.53;;;3.76;100.00